createdAt,value
2018-12-26T00:00:05.288Z,1.50
2018-12-26T00:05:08.519Z,1.50
2018-12-26T00:10:11.964Z,1.50
2018-12-26T00:15:15.290Z,1.50
2018-12-26T00:20:18.712Z,1.50
2018-12-26T00:25:22.029Z,1.50
2018-12-26T00:30:25.417Z,1.50
2018-12-26T00:35:28.723Z,1.50
2018-12-26T00:40:32.144Z,1.40
2018-12-26T00:45:35.472Z,1.40
2018-12-26T00:50:38.791Z,1.40
2018-12-26T00:55:42.100Z,1.40
2018-12-26T01:00:45.400Z,1.30
2018-12-26T01:05:48.721Z,1.30
2018-12-26T01:10:52.098Z,1.20
2018-12-26T01:20:58.851Z,1.10
2018-12-26T01:26:02.175Z,1.00
2018-12-26T01:31:05.481Z,0.90
2018-12-26T01:36:08.801Z,0.80
2018-12-26T01:41:12.124Z,0.80
2018-12-26T01:46:15.622Z,0.70
2018-12-26T01:51:18.945Z,0.60
2018-12-26T01:56:27.962Z,0.60
2018-12-26T02:01:25.731Z,0.60
2018-12-26T02:06:29.039Z,0.40
2018-12-26T02:11:32.381Z,0.40
2018-12-26T02:21:39.671Z,0.30
2018-12-26T02:26:43.095Z,0.30
2018-12-26T02:31:46.487Z,0.30
2018-12-26T02:36:49.820Z,0.30
2018-12-26T02:41:53.296Z,0.40
2018-12-26T02:46:56.698Z,0.40
2018-12-26T02:52:00.185Z,0.40
2018-12-26T02:57:03.490Z,0.40
2018-12-26T03:02:07.104Z,0.40
2018-12-26T03:07:10.417Z,0.30
2018-12-26T03:12:13.849Z,0.30
2018-12-26T03:17:17.284Z,0.30
2018-12-26T03:22:20.593Z,0.30
2018-12-26T03:27:24.102Z,0.30
2018-12-26T03:32:27.603Z,0.20
2018-12-26T03:37:31.120Z,0.20
2018-12-26T03:42:34.584Z,0.20
2018-12-26T03:47:38.089Z,0.20
2018-12-26T03:52:41.565Z,0.20
2018-12-26T03:57:44.924Z,0.30
2018-12-26T04:02:48.260Z,0.30
2018-12-26T04:07:52.290Z,0.30
2018-12-26T04:12:55.780Z,0.30
2018-12-26T04:17:59.135Z,0.30
2018-12-26T04:23:02.623Z,0.30
2018-12-26T04:28:05.969Z,0.20
2018-12-26T04:33:09.519Z,0.10
2018-12-26T04:38:12.860Z,0.10
2018-12-26T04:43:16.313Z,0.00
2018-12-26T04:48:19.675Z,0.00
2018-12-26T04:53:23.175Z,-0.10
2018-12-26T04:58:26.711Z,-0.10
2018-12-26T05:03:30.029Z,-0.20
2018-12-26T05:08:33.417Z,-0.20
2018-12-26T05:13:36.853Z,-0.30
2018-12-26T05:18:40.292Z,-0.30
2018-12-26T05:23:43.632Z,-0.30
2018-12-26T05:28:46.960Z,-0.30
2018-12-26T05:33:50.452Z,-0.30
2018-12-26T05:38:53.824Z,-0.30
2018-12-26T05:43:58.273Z,-0.30
2018-12-26T05:49:01.588Z,-0.30
2018-12-26T05:54:05.083Z,-0.30
2018-12-26T05:59:08.436Z,-0.30
2018-12-26T06:04:11.744Z,-0.40
2018-12-26T06:09:15.250Z,-0.50
2018-12-26T06:14:18.555Z,-0.50
2018-12-26T06:19:22.033Z,-0.60
2018-12-26T06:24:25.428Z,-0.70
2018-12-26T06:29:28.836Z,-0.70
2018-12-26T06:34:32.163Z,-0.70
2018-12-26T06:39:35.558Z,-0.80
2018-12-26T06:44:38.924Z,-0.90
2018-12-26T06:49:42.435Z,-1.00
2018-12-26T06:54:45.907Z,-1.00
2018-12-26T06:59:49.299Z,-0.80
2018-12-26T07:04:52.673Z,-0.70
2018-12-26T07:09:55.995Z,-0.80
2018-12-26T07:14:59.304Z,-0.80
2018-12-26T07:20:02.631Z,-1.00
2018-12-26T07:25:05.991Z,-1.00
2018-12-26T07:30:09.318Z,-1.10
2018-12-26T07:35:12.817Z,-1.00
2018-12-26T07:40:16.324Z,-1.00
2018-12-26T07:45:20.798Z,-1.10
2018-12-26T07:50:24.119Z,-1.00
2018-12-26T07:55:27.562Z,-1.10
2018-12-26T08:00:30.872Z,-1.10
2018-12-26T08:05:34.285Z,-1.20
2018-12-26T08:10:37.755Z,-1.20
2018-12-26T08:15:41.244Z,-1.20
2018-12-26T08:20:44.779Z,-1.10
2018-12-26T08:25:49.033Z,-1.00
2018-12-26T08:30:53.520Z,-0.80
2018-12-26T08:35:56.861Z,-0.70
2018-12-26T08:41:00.299Z,-0.70
2018-12-26T08:46:03.723Z,-0.60
2018-12-26T08:51:07.088Z,-0.50
2018-12-26T08:56:10.450Z,-0.30
2018-12-26T09:01:13.868Z,-0.30
2018-12-26T09:06:17.407Z,-0.30
2018-12-26T09:11:20.832Z,-0.10
2018-12-26T09:16:24.257Z,0.10
2018-12-26T09:21:27.810Z,0.20
2018-12-26T09:26:33.586Z,0.20
2018-12-26T09:31:37.281Z,0.20
2018-12-26T09:36:40.860Z,0.40
2018-12-26T09:41:44.285Z,0.50
2018-12-26T09:46:47.761Z,0.60
2018-12-26T09:51:51.331Z,0.80
2018-12-26T09:56:54.785Z,1.10
2018-12-26T10:01:58.257Z,1.20
2018-12-26T10:07:01.638Z,1.40
2018-12-26T10:17:08.445Z,1.60
2018-12-26T10:22:11.995Z,1.60
2018-12-26T10:27:15.343Z,1.90
2018-12-26T10:32:18.951Z,2.00
2018-12-26T10:37:22.292Z,2.00
2018-12-26T10:42:25.623Z,2.20
2018-12-26T10:47:29.111Z,2.60
2018-12-26T10:52:32.643Z,2.70
2018-12-26T10:57:36.181Z,2.60
2018-12-26T11:02:39.623Z,2.60
2018-12-26T11:07:43.032Z,2.50
2018-12-26T11:12:46.385Z,2.60
2018-12-26T11:17:49.797Z,2.90
2018-12-26T11:22:53.291Z,3.10
2018-12-26T11:27:56.671Z,3.00
2018-12-26T11:33:01.405Z,3.00
2018-12-26T11:38:03.492Z,2.90
2018-12-26T11:43:06.909Z,2.80
2018-12-26T11:48:10.443Z,2.90
2018-12-26T11:53:13.913Z,2.90
2018-12-26T11:58:17.337Z,2.70
2018-12-26T12:03:20.671Z,2.90
2018-12-26T12:08:24.203Z,3.30
2018-12-26T12:13:27.768Z,3.60
2018-12-26T12:18:31.305Z,3.20
2018-12-26T12:23:34.720Z,4.10
2018-12-26T12:28:38.160Z,4.60
2018-12-26T12:33:41.732Z,4.70
2018-12-26T12:38:45.168Z,5.10
2018-12-26T12:43:48.644Z,4.90
2018-12-26T12:48:52.185Z,4.90
2018-12-26T12:53:55.602Z,4.70
2018-12-26T12:58:59.167Z,4.70
2018-12-26T13:04:02.683Z,4.90
2018-12-26T13:09:07.517Z,5.30
2018-12-26T13:14:10.976Z,4.60
2018-12-26T13:19:14.453Z,4.20
2018-12-26T13:29:21.054Z,4.10
2018-12-26T13:34:24.498Z,3.90
2018-12-26T13:39:27.987Z,4.10
2018-12-26T13:44:31.540Z,4.00
2018-12-26T13:49:34.947Z,3.90
2018-12-26T13:54:38.396Z,3.80
2018-12-26T13:59:41.912Z,3.70
2018-12-26T14:04:45.480Z,3.80
2018-12-26T14:09:48.903Z,3.80
2018-12-26T14:14:52.329Z,3.70
2018-12-26T14:19:55.837Z,3.70
2018-12-26T14:24:59.268Z,3.80
2018-12-26T14:30:10.903Z,3.70
2018-12-26T14:35:06.399Z,3.60
2018-12-26T14:40:09.874Z,3.50
2018-12-26T14:45:13.351Z,3.60
2018-12-26T14:55:21.006Z,3.50
2018-12-26T15:00:24.537Z,3.50
2018-12-26T15:05:28.003Z,3.40
2018-12-26T15:10:31.528Z,3.50
2018-12-26T15:15:35.052Z,3.40
2018-12-26T15:20:38.612Z,3.40
2018-12-26T15:25:42.047Z,3.30
2018-12-26T15:30:45.464Z,3.30
2018-12-26T15:35:48.879Z,3.20
2018-12-26T15:40:52.301Z,3.20
2018-12-26T15:45:55.935Z,3.20
2018-12-26T15:50:59.641Z,3.10
2018-12-26T15:56:03.231Z,3.10
2018-12-26T16:01:06.847Z,3.10
2018-12-26T16:06:10.442Z,3.10
2018-12-26T16:11:14.927Z,3.10
2018-12-26T16:16:18.455Z,3.00
2018-12-26T16:21:21.984Z,3.10
2018-12-26T16:26:25.455Z,3.10
2018-12-26T16:31:28.991Z,3.10
2018-12-26T16:36:32.507Z,3.10
2018-12-26T16:41:36.041Z,3.00
2018-12-26T16:46:40.716Z,3.00
2018-12-26T16:51:44.463Z,3.00
2018-12-26T17:01:55.162Z,2.90
2018-12-26T17:06:58.745Z,2.90
2018-12-26T17:12:02.225Z,2.90
2018-12-26T17:17:05.722Z,2.80
2018-12-26T17:22:09.394Z,2.80
2018-12-26T17:27:13.108Z,2.70
2018-12-26T17:32:16.693Z,2.60
2018-12-26T17:37:20.323Z,2.60
2018-12-26T17:42:23.855Z,2.50
2018-12-26T17:47:27.295Z,2.60
2018-12-26T17:52:30.807Z,2.60
2018-12-26T17:57:39.242Z,2.50
2018-12-26T18:02:45.281Z,2.60
2018-12-26T18:07:48.716Z,2.50
2018-12-26T18:12:52.228Z,2.40
2018-12-26T18:17:55.736Z,2.40
2018-12-26T18:22:59.175Z,2.40
2018-12-26T18:28:02.639Z,2.40
2018-12-26T18:33:06.194Z,2.40
2018-12-26T18:38:09.667Z,2.30
2018-12-26T18:43:13.118Z,2.30
2018-12-26T18:53:19.681Z,2.40
2018-12-26T18:58:23.218Z,2.40
2018-12-26T19:03:26.717Z,2.40
2018-12-26T19:08:30.135Z,2.40
2018-12-26T19:13:33.661Z,2.40
2018-12-26T19:18:37.681Z,2.30
2018-12-26T19:23:41.228Z,2.40
2018-12-26T19:28:44.649Z,2.40
2018-12-26T19:33:48.063Z,2.40
2018-12-26T19:38:52.016Z,2.40
2018-12-26T19:43:55.447Z,2.40
2018-12-26T19:48:59.324Z,2.30
2018-12-26T19:59:06.077Z,2.20
2018-12-26T20:04:09.503Z,2.20
2018-12-26T20:09:13.077Z,2.10
2018-12-26T20:14:17.535Z,2.10
2018-12-26T20:19:21.149Z,2.10
2018-12-26T20:24:25.028Z,2.00
2018-12-26T20:29:28.476Z,1.90
2018-12-26T20:34:31.916Z,1.90
2018-12-26T20:39:35.504Z,1.90
2018-12-26T20:44:39.127Z,1.80
2018-12-26T20:49:42.756Z,1.70
2018-12-26T20:59:50.326Z,1.60
2018-12-26T21:04:54.339Z,1.60
2018-12-26T21:09:59.056Z,1.50
2018-12-26T21:15:05.063Z,1.50
2018-12-26T21:20:10.009Z,1.40
2018-12-26T21:25:14.113Z,1.30
2018-12-26T21:30:19.011Z,1.40
2018-12-26T21:35:24.338Z,1.30
2018-12-26T21:40:29.899Z,1.30
2018-12-26T21:45:33.413Z,1.30
2018-12-26T21:50:38.076Z,1.20
2018-12-26T21:55:41.744Z,1.20
2018-12-26T22:00:45.911Z,1.20
2018-12-26T22:05:49.351Z,1.20
2018-12-26T22:10:53.351Z,1.30
2018-12-26T22:15:57.233Z,1.20
2018-12-26T22:21:00.838Z,1.20
2018-12-26T22:31:08.751Z,1.10
2018-12-26T22:36:13.275Z,1.10
2018-12-26T22:41:17.097Z,1.10
2018-12-26T22:46:20.865Z,1.10
2018-12-26T22:51:24.318Z,1.20
2018-12-26T22:56:27.608Z,1.10
2018-12-26T23:01:31.107Z,1.00
2018-12-26T23:06:34.419Z,1.00
2018-12-26T23:11:37.858Z,1.10
2018-12-26T23:16:41.168Z,1.10
2018-12-26T23:21:44.536Z,1.10
2018-12-26T23:26:47.865Z,1.10
2018-12-26T23:31:52.384Z,1.00
2018-12-26T23:36:55.716Z,1.00
2018-12-26T23:41:59.209Z,1.00
2018-12-26T23:47:02.543Z,0.90
2018-12-26T23:52:05.871Z,0.90
2018-12-26T23:57:09.196Z,0.90
